Карточка аэропорта UMKK

Внимание!
Информация на этой странице в стадии наполнения.
Если вы не увидели какой-то информации, или заметили неточность - пожалуйста сообщите нам!
Спасибо!
Команда RU-STAFF
Название аэропортаХраброво
Название аэропорта (англ.)Khrabrovo
Превышение43 ft. (13.1 m.)
Координаты54°53.4', 20°35.55'
Высота перехода4000ft
Эшелон переходаFL50 (QNH>=1013hPa); FL60 (QNH<1013hPa); FL50 (QNH<977hPa);
Коды ответчика6620-6637
Зона ОрВДКалининград РПИ (UMKK)
Данные METARUMKK 231100Z 25005MPS 9999 SCT021 11/09 Q0996 R24/290095 NOSIG RMK QFE746/0994
Проноз погоды (TAF)UMKK 230758Z 2309/2409 22003G10MPS 6000 SCT006 BKN016 TEMPO 2309/2311 -SHRA BKN005 BKN013CB BECMG 2311/2313 VRB01MPS BKN016 BECMG 2315/2318 14003MPS TEMPO 2315/2321 3000 BR TEMPO 2321/2406 0400 FG BKN002 BECMG 2404/2406 10005G10MPS BECMG 2407/2409 17007G13MPS
NOTAMshow/hide NOTAM
AWOS   TABLE

Информация о ВПП

ВПП Длина ВПП (м.) Покрытие Курс ВПП Частота ILS
063350Асфальтобетон60110.3
243350Асфальтобетон240109.5

Диспетчерские позиции

Позывной Наименование органа УВД Частота
UMKK_TWRКалининград-Вышка127.2
UMKK_APPКалининград-Подход126.0



Спутниковое изображение